sensor_id;sensor_type;location;lat;lon;timestamp;temperature;humidity
53208;DHT22;39093;52.788;6.940;2023-03-14T00:00:10;10.70;99.90
53208;DHT22;39093;52.788;6.940;2023-03-14T00:02:38;10.90;99.90
53208;DHT22;39093;52.788;6.940;2023-03-14T00:05:06;10.80;99.90
53208;DHT22;39093;52.788;6.940;2023-03-14T00:07:35;10.90;99.90
53208;DHT22;39093;52.788;6.940;2023-03-14T00:10:06;10.90;99.90
53208;DHT22;39093;52.788;6.940;2023-03-14T00:12:33;10.90;99.90
53208;DHT22;39093;52.788;6.940;2023-03-14T00:15:00;10.90;99.90
53208;DHT22;39093;52.788;6.940;2023-03-14T00:17:30;10.90;99.90
53208;DHT22;39093;52.788;6.940;2023-03-14T00:19:57;10.90;99.90
53208;DHT22;39093;52.788;6.940;2023-03-14T00:22:31;10.80;99.90
53208;DHT22;39093;52.788;6.940;2023-03-14T00:25:00;10.70;99.90
53208;DHT22;39093;52.788;6.940;2023-03-14T00:27:27;10.60;99.90
53208;DHT22;39093;52.788;6.940;2023-03-14T00:29:54;10.60;99.90
53208;DHT22;39093;52.788;6.940;2023-03-14T00:32:20;10.50;99.90
53208;DHT22;39093;52.788;6.940;2023-03-14T00:34:47;10.50;99.90
53208;DHT22;39093;52.788;6.940;2023-03-14T00:37:14;10.50;99.90
53208;DHT22;39093;52.788;6.940;2023-03-14T00:39:41;10.40;99.90
53208;DHT22;39093;52.788;6.940;2023-03-14T00:42:08;10.40;99.90
53208;DHT22;39093;52.788;6.940;2023-03-14T00:44:35;10.30;99.90
53208;DHT22;39093;52.788;6.940;2023-03-14T00:47:02;10.20;99.90
53208;DHT22;39093;52.788;6.940;2023-03-14T00:49:29;10.20;99.90
53208;DHT22;39093;52.788;6.940;2023-03-14T00:51:56;10.10;99.90
53208;DHT22;39093;52.788;6.940;2023-03-14T00:54:23;10.10;99.90
53208;DHT22;39093;52.788;6.940;2023-03-14T00:56:49;10.10;99.90
53208;DHT22;39093;52.788;6.940;2023-03-14T00:59:16;10.00;99.90
53208;DHT22;39093;52.788;6.940;2023-03-14T01:01:44;10.10;99.90
53208;DHT22;39093;52.788;6.940;2023-03-14T01:04:11;10.20;99.90
53208;DHT22;39093;52.788;6.940;2023-03-14T01:06:38;10.00;99.90
53208;DHT22;39093;52.788;6.940;2023-03-14T01:09:05;10.00;99.90
53208;DHT22;39093;52.788;6.940;2023-03-14T01:11:34;10.00;99.90
53208;DHT22;39093;52.788;6.940;2023-03-14T01:14:02;9.90;99.90
53208;DHT22;39093;52.788;6.940;2023-03-14T01:16:32;9.90;99.90
53208;DHT22;39093;52.788;6.940;2023-03-14T01:18:59;9.90;99.90
53208;DHT22;39093;52.788;6.940;2023-03-14T01:21:28;10.00;99.90
53208;DHT22;39093;52.788;6.940;2023-03-14T01:23:58;9.80;99.90
53208;DHT22;39093;52.788;6.940;2023-03-14T01:26:27;9.70;99.90
53208;DHT22;39093;52.788;6.940;2023-03-14T01:28:56;9.60;99.90
53208;DHT22;39093;52.788;6.940;2023-03-14T01:31:24;9.50;99.90
53208;DHT22;39093;52.788;6.940;2023-03-14T01:33:52;9.40;99.90
53208;DHT22;39093;52.788;6.940;2023-03-14T01:36:19;9.40;99.90
53208;DHT22;39093;52.788;6.940;2023-03-14T01:38:48;9.40;99.90
53208;DHT22;39093;52.788;6.940;2023-03-14T01:41:21;9.40;99.90
53208;DHT22;39093;52.788;6.940;2023-03-14T01:43:48;9.40;99.90
53208;DHT22;39093;52.788;6.940;2023-03-14T01:54:41;9.40;99.90
53208;DHT22;39093;52.788;6.940;2023-03-14T01:57:28;9.50;99.90
53208;DHT22;39093;52.788;6.940;2023-03-14T02:00:00;9.50;99.90
53208;DHT22;39093;52.788;6.940;2023-03-14T02:02:28;9.50;99.90
53208;DHT22;39093;52.788;6.940;2023-03-14T02:04:57;9.50;99.90
53208;DHT22;39093;52.788;6.940;2023-03-14T02:07:50;9.40;99.90
53208;DHT22;39093;52.788;6.940;2023-03-14T02:10:20;9.50;99.90
53208;DHT22;39093;52.788;6.940;2023-03-14T02:12:48;9.50;99.90
53208;DHT22;39093;52.788;6.940;2023-03-14T02:15:15;9.40;99.90
53208;DHT22;39093;52.788;6.940;2023-03-14T02:17:43;9.40;99.90
53208;DHT22;39093;52.788;6.940;2023-03-14T02:22:54;9.50;99.90
53208;DHT22;39093;52.788;6.940;2023-03-14T02:25:41;9.40;99.90
53208;DHT22;39093;52.788;6.940;2023-03-14T02:28:10;9.40;99.90
53208;DHT22;39093;52.788;6.940;2023-03-14T02:30:38;9.40;99.90
53208;DHT22;39093;52.788;6.940;2023-03-14T02:33:07;9.50;99.90
53208;DHT22;39093;52.788;6.940;2023-03-14T02:35:41;9.40;99.90
53208;DHT22;39093;52.788;6.940;2023-03-14T02:38:26;9.30;99.90
53208;DHT22;39093;52.788;6.940;2023-03-14T02:40:55;9.40;99.90
53208;DHT22;39093;52.788;6.940;2023-03-14T02:43:22;9.50;99.90
53208;DHT22;39093;52.788;6.940;2023-03-14T02:45:50;9.60;99.90
53208;DHT22;39093;52.788;6.940;2023-03-14T02:48:27;9.50;99.90
53208;DHT22;39093;52.788;6.940;2023-03-14T02:50:57;9.60;99.90
53208;DHT22;39093;52.788;6.940;2023-03-14T02:53:34;9.70;99.90
53208;DHT22;39093;52.788;6.940;2023-03-14T02:56:02;9.80;99.90
53208;DHT22;39093;52.788;6.940;2023-03-14T02:58:29;9.70;99.90
53208;DHT22;39093;52.788;6.940;2023-03-14T03:00:56;9.80;99.90
53208;DHT22;39093;52.788;6.940;2023-03-14T03:03:23;9.90;99.90
53208;DHT22;39093;52.788;6.940;2023-03-14T03:05:51;9.80;99.90
53208;DHT22;39093;52.788;6.940;2023-03-14T03:08:22;9.80;99.90
53208;DHT22;39093;52.788;6.940;2023-03-14T03:10:50;9.80;99.90
53208;DHT22;39093;52.788;6.940;2023-03-14T03:13:17;9.80;99.90
53208;DHT22;39093;52.788;6.940;2023-03-14T03:15:45;9.70;99.90
53208;DHT22;39093;52.788;6.940;2023-03-14T03:18:12;9.80;99.90
53208;DHT22;39093;52.788;6.940;2023-03-14T03:20:39;9.70;99.90
53208;DHT22;39093;52.788;6.940;2023-03-14T03:23:06;9.60;99.90
53208;DHT22;39093;52.788;6.940;2023-03-14T03:25:33;9.60;99.90
53208;DHT22;39093;52.788;6.940;2023-03-14T03:28:00;9.60;99.90
53208;DHT22;39093;52.788;6.940;2023-03-14T03:30:27;9.60;99.90
53208;DHT22;39093;52.788;6.940;2023-03-14T03:32:54;9.50;99.90
53208;DHT22;39093;52.788;6.940;2023-03-14T03:35:22;9.50;99.90
53208;DHT22;39093;52.788;6.940;2023-03-14T03:37:49;9.50;99.90
53208;DHT22;39093;52.788;6.940;2023-03-14T03:40:16;9.50;99.90
53208;DHT22;39093;52.788;6.940;2023-03-14T03:42:43;9.50;99.90
53208;DHT22;39093;52.788;6.940;2023-03-14T03:45:10;9.50;99.90
53208;DHT22;39093;52.788;6.940;2023-03-14T03:47:37;9.50;99.90
53208;DHT22;39093;52.788;6.940;2023-03-14T03:50:04;9.50;99.90
53208;DHT22;39093;52.788;6.940;2023-03-14T03:52:31;9.50;99.90
53208;DHT22;39093;52.788;6.940;2023-03-14T03:54:58;9.50;99.90
53208;DHT22;39093;52.788;6.940;2023-03-14T03:57:25;9.50;99.90
53208;DHT22;39093;52.788;6.940;2023-03-14T03:59:52;9.40;99.90
53208;DHT22;39093;52.788;6.940;2023-03-14T04:02:18;9.50;99.90
53208;DHT22;39093;52.788;6.940;2023-03-14T04:04:45;9.40;99.90
53208;DHT22;39093;52.788;6.940;2023-03-14T04:07:12;9.50;99.90
53208;DHT22;39093;52.788;6.940;2023-03-14T04:09:40;9.40;99.90
53208;DHT22;39093;52.788;6.940;2023-03-14T04:12:07;9.40;99.90
53208;DHT22;39093;52.788;6.940;2023-03-14T04:14:34;9.40;99.90
53208;DHT22;39093;52.788;6.940;2023-03-14T04:17:01;9.40;99.90
53208;DHT22;39093;52.788;6.940;2023-03-14T04:19:28;9.40;99.90
53208;DHT22;39093;52.788;6.940;2023-03-14T04:21:55;9.40;99.90
53208;DHT22;39093;52.788;6.940;2023-03-14T04:24:21;9.40;99.90
53208;DHT22;39093;52.788;6.940;2023-03-14T04:26:48;9.30;99.90
53208;DHT22;39093;52.788;6.940;2023-03-14T04:29:15;9.30;99.90
53208;DHT22;39093;52.788;6.940;2023-03-14T04:31:42;9.40;99.90
53208;DHT22;39093;52.788;6.940;2023-03-14T04:34:09;9.40;99.90
53208;DHT22;39093;52.788;6.940;2023-03-14T04:36:36;9.30;99.90
53208;DHT22;39093;52.788;6.940;2023-03-14T04:39:05;9.30;99.90
53208;DHT22;39093;52.788;6.940;2023-03-14T04:41:32;9.20;99.90
53208;DHT22;39093;52.788;6.940;2023-03-14T04:43:59;9.20;99.90
53208;DHT22;39093;52.788;6.940;2023-03-14T04:46:26;9.20;99.90
53208;DHT22;39093;52.788;6.940;2023-03-14T04:48:53;9.30;99.90
53208;DHT22;39093;52.788;6.940;2023-03-14T04:51:20;9.30;99.90
53208;DHT22;39093;52.788;6.940;2023-03-14T04:53:50;9.30;99.90
53208;DHT22;39093;52.788;6.940;2023-03-14T04:56:16;9.30;99.90
53208;DHT22;39093;52.788;6.940;2023-03-14T04:58:43;9.40;99.90
53208;DHT22;39093;52.788;6.940;2023-03-14T05:01:11;9.30;99.90
53208;DHT22;39093;52.788;6.940;2023-03-14T05:03:38;9.20;99.90
53208;DHT22;39093;52.788;6.940;2023-03-14T05:06:05;9.40;99.90
53208;DHT22;39093;52.788;6.940;2023-03-14T05:08:32;9.40;99.90
53208;DHT22;39093;52.788;6.940;2023-03-14T05:10:58;9.30;99.90
53208;DHT22;39093;52.788;6.940;2023-03-14T05:13:25;9.30;99.90
53208;DHT22;39093;52.788;6.940;2023-03-14T05:15:52;9.20;99.90
53208;DHT22;39093;52.788;6.940;2023-03-14T05:18:20;9.30;99.90
53208;DHT22;39093;52.788;6.940;2023-03-14T05:20:50;9.20;99.90
53208;DHT22;39093;52.788;6.940;2023-03-14T05:23:17;9.20;99.90
53208;DHT22;39093;52.788;6.940;2023-03-14T05:25:44;9.20;99.90
53208;DHT22;39093;52.788;6.940;2023-03-14T05:28:11;9.20;99.90
53208;DHT22;39093;52.788;6.940;2023-03-14T05:30:38;9.20;99.90
53208;DHT22;39093;52.788;6.940;2023-03-14T05:33:04;9.10;99.90
53208;DHT22;39093;52.788;6.940;2023-03-14T05:35:31;9.10;99.90
53208;DHT22;39093;52.788;6.940;2023-03-14T05:37:58;9.10;99.90
53208;DHT22;39093;52.788;6.940;2023-03-14T05:40:25;9.10;99.90
53208;DHT22;39093;52.788;6.940;2023-03-14T05:42:52;9.20;99.90
53208;DHT22;39093;52.788;6.940;2023-03-14T05:45:19;9.20;99.90
53208;DHT22;39093;52.788;6.940;2023-03-14T05:47:46;9.20;99.90
53208;DHT22;39093;52.788;6.940;2023-03-14T05:50:13;9.20;99.90
53208;DHT22;39093;52.788;6.940;2023-03-14T05:52:41;9.20;99.90
53208;DHT22;39093;52.788;6.940;2023-03-14T05:55:08;9.10;99.90
53208;DHT22;39093;52.788;6.940;2023-03-14T05:57:35;9.10;99.90
53208;DHT22;39093;52.788;6.940;2023-03-14T06:00:03;9.30;99.90
53208;DHT22;39093;52.788;6.940;2023-03-14T06:02:30;9.10;99.90
53208;DHT22;39093;52.788;6.940;2023-03-14T06:04:57;9.10;99.90
53208;DHT22;39093;52.788;6.940;2023-03-14T06:07:24;9.20;99.90
53208;DHT22;39093;52.788;6.940;2023-03-14T06:09:51;9.30;99.90
53208;DHT22;39093;52.788;6.940;2023-03-14T06:12:17;9.30;99.90
53208;DHT22;39093;52.788;6.940;2023-03-14T06:14:44;9.20;99.90
53208;DHT22;39093;52.788;6.940;2023-03-14T06:17:11;9.20;99.90
53208;DHT22;39093;52.788;6.940;2023-03-14T06:19:38;9.20;99.90
53208;DHT22;39093;52.788;6.940;2023-03-14T06:22:05;9.10;99.90
53208;DHT22;39093;52.788;6.940;2023-03-14T06:24:32;9.10;99.90
53208;DHT22;39093;52.788;6.940;2023-03-14T06:26:59;9.10;99.90
53208;DHT22;39093;52.788;6.940;2023-03-14T06:29:26;9.10;99.90
53208;DHT22;39093;52.788;6.940;2023-03-14T06:31:52;9.20;99.90
53208;DHT22;39093;52.788;6.940;2023-03-14T06:34:19;9.30;99.90
53208;DHT22;39093;52.788;6.940;2023-03-14T06:36:46;9.20;99.90
53208;DHT22;39093;52.788;6.940;2023-03-14T06:39:13;9.20;99.90
53208;DHT22;39093;52.788;6.940;2023-03-14T06:41:40;9.20;99.90
53208;DHT22;39093;52.788;6.940;2023-03-14T06:44:07;9.30;99.90
53208;DHT22;39093;52.788;6.940;2023-03-14T06:46:34;9.30;99.90
53208;DHT22;39093;52.788;6.940;2023-03-14T06:49:00;9.20;99.90
53208;DHT22;39093;52.788;6.940;2023-03-14T06:51:27;9.20;99.90
53208;DHT22;39093;52.788;6.940;2023-03-14T06:53:54;9.20;99.90
53208;DHT22;39093;52.788;6.940;2023-03-14T06:56:21;9.20;99.90
53208;DHT22;39093;52.788;6.940;2023-03-14T06:58:48;9.20;99.90
53208;DHT22;39093;52.788;6.940;2023-03-14T07:01:25;9.10;99.90
53208;DHT22;39093;52.788;6.940;2023-03-14T07:03:52;9.20;99.90
53208;DHT22;39093;52.788;6.940;2023-03-14T07:06:19;9.20;99.90
53208;DHT22;39093;52.788;6.940;2023-03-14T07:08:46;9.20;99.90
53208;DHT22;39093;52.788;6.940;2023-03-14T07:11:13;9.20;99.90
53208;DHT22;39093;52.788;6.940;2023-03-14T07:13:40;9.30;99.90
53208;DHT22;39093;52.788;6.940;2023-03-14T07:16:07;9.20;99.90
53208;DHT22;39093;52.788;6.940;2023-03-14T07:18:35;9.20;99.90
53208;DHT22;39093;52.788;6.940;2023-03-14T07:21:03;9.30;99.90
53208;DHT22;39093;52.788;6.940;2023-03-14T07:23:30;9.30;99.90
53208;DHT22;39093;52.788;6.940;2023-03-14T07:25:57;9.30;99.90
53208;DHT22;39093;52.788;6.940;2023-03-14T07:28:24;9.30;99.90
53208;DHT22;39093;52.788;6.940;2023-03-14T07:30:51;9.30;99.90
53208;DHT22;39093;52.788;6.940;2023-03-14T07:33:18;9.20;99.90
53208;DHT22;39093;52.788;6.940;2023-03-14T07:35:47;9.30;99.90
53208;DHT22;39093;52.788;6.940;2023-03-14T07:38:15;9.20;99.90
53208;DHT22;39093;52.788;6.940;2023-03-14T07:40:42;9.20;99.90
53208;DHT22;39093;52.788;6.940;2023-03-14T07:43:09;9.20;99.90
53208;DHT22;39093;52.788;6.940;2023-03-14T07:45:37;9.10;99.90
53208;DHT22;39093;52.788;6.940;2023-03-14T07:48:08;9.10;99.90
53208;DHT22;39093;52.788;6.940;2023-03-14T07:50:36;9.00;99.90
53208;DHT22;39093;52.788;6.940;2023-03-14T07:53:03;8.90;99.90
53208;DHT22;39093;52.788;6.940;2023-03-14T07:55:30;8.80;99.90
53208;DHT22;39093;52.788;6.940;2023-03-14T07:57:57;8.70;99.90
53208;DHT22;39093;52.788;6.940;2023-03-14T08:00:24;8.70;99.90
53208;DHT22;39093;52.788;6.940;2023-03-14T08:02:51;8.30;99.90
53208;DHT22;39093;52.788;6.940;2023-03-14T08:05:17;8.00;99.90
53208;DHT22;39093;52.788;6.940;2023-03-14T08:07:44;7.90;99.90
53208;DHT22;39093;52.788;6.940;2023-03-14T08:10:12;7.70;99.90
53208;DHT22;39093;52.788;6.940;2023-03-14T08:12:42;7.50;99.90
53208;DHT22;39093;52.788;6.940;2023-03-14T08:15:09;7.40;99.90
53208;DHT22;39093;52.788;6.940;2023-03-14T08:17:36;7.10;99.90
53208;DHT22;39093;52.788;6.940;2023-03-14T08:20:04;6.90;99.90
53208;DHT22;39093;52.788;6.940;2023-03-14T08:22:35;6.60;99.90
53208;DHT22;39093;52.788;6.940;2023-03-14T08:25:02;6.40;99.90
53208;DHT22;39093;52.788;6.940;2023-03-14T08:27:29;6.20;99.90
53208;DHT22;39093;52.788;6.940;2023-03-14T08:29:57;6.10;99.90
53208;DHT22;39093;52.788;6.940;2023-03-14T08:32:24;6.00;99.90
53208;DHT22;39093;52.788;6.940;2023-03-14T08:34:51;6.00;99.90
53208;DHT22;39093;52.788;6.940;2023-03-14T08:37:17;5.80;99.90
53208;DHT22;39093;52.788;6.940;2023-03-14T08:39:52;5.80;99.90
53208;DHT22;39093;52.788;6.940;2023-03-14T08:42:20;5.80;99.90
53208;DHT22;39093;52.788;6.940;2023-03-14T08:44:48;5.70;99.90
53208;DHT22;39093;52.788;6.940;2023-03-14T08:47:14;5.60;99.90
53208;DHT22;39093;52.788;6.940;2023-03-14T08:49:41;5.50;99.90
53208;DHT22;39093;52.788;6.940;2023-03-14T08:52:08;5.40;99.90
53208;DHT22;39093;52.788;6.940;2023-03-14T08:54:35;5.50;99.90
53208;DHT22;39093;52.788;6.940;2023-03-14T08:57:02;5.40;99.90
53208;DHT22;39093;52.788;6.940;2023-03-14T08:59:29;5.40;99.90
53208;DHT22;39093;52.788;6.940;2023-03-14T09:01:56;5.40;99.90
53208;DHT22;39093;52.788;6.940;2023-03-14T09:04:23;5.40;99.90
53208;DHT22;39093;52.788;6.940;2023-03-14T09:06:50;5.40;99.90
53208;DHT22;39093;52.788;6.940;2023-03-14T09:09:17;5.40;99.90
53208;DHT22;39093;52.788;6.940;2023-03-14T09:11:44;5.40;99.90
53208;DHT22;39093;52.788;6.940;2023-03-14T09:14:11;5.40;99.90
53208;DHT22;39093;52.788;6.940;2023-03-14T09:16:38;5.40;99.90
53208;DHT22;39093;52.788;6.940;2023-03-14T09:19:05;5.40;99.90
53208;DHT22;39093;52.788;6.940;2023-03-14T09:21:32;5.40;99.90
53208;DHT22;39093;52.788;6.940;2023-03-14T09:23:59;5.50;99.90
53208;DHT22;39093;52.788;6.940;2023-03-14T09:26:26;5.50;99.90
53208;DHT22;39093;52.788;6.940;2023-03-14T09:28:53;5.50;99.90
53208;DHT22;39093;52.788;6.940;2023-03-14T09:31:21;5.60;99.90
53208;DHT22;39093;52.788;6.940;2023-03-14T09:33:48;5.60;99.90
53208;DHT22;39093;52.788;6.940;2023-03-14T09:36:15;5.70;99.90
53208;DHT22;39093;52.788;6.940;2023-03-14T09:38:42;5.80;99.90
53208;DHT22;39093;52.788;6.940;2023-03-14T09:41:16;5.80;99.90
53208;DHT22;39093;52.788;6.940;2023-03-14T09:43:45;5.80;99.90
53208;DHT22;39093;52.788;6.940;2023-03-14T09:46:13;5.90;99.90
53208;DHT22;39093;52.788;6.940;2023-03-14T09:48:42;5.90;99.90
53208;DHT22;39093;52.788;6.940;2023-03-14T09:51:18;6.10;99.90
53208;DHT22;39093;52.788;6.940;2023-03-14T09:53:48;6.20;99.90
53208;DHT22;39093;52.788;6.940;2023-03-14T09:56:20;6.50;99.90
53208;DHT22;39093;52.788;6.940;2023-03-14T10:11:01;6.60;99.90
53208;DHT22;39093;52.788;6.940;2023-03-14T10:13:29;6.50;99.90
53208;DHT22;39093;52.788;6.940;2023-03-14T10:16:02;6.60;99.90
53208;DHT22;39093;52.788;6.940;2023-03-14T10:18:30;6.70;99.90
53208;DHT22;39093;52.788;6.940;2023-03-14T10:21:21;6.80;99.90
53208;DHT22;39093;52.788;6.940;2023-03-14T10:23:52;6.80;99.90
53208;DHT22;39093;52.788;6.940;2023-03-14T10:26:27;6.90;99.90
53208;DHT22;39093;52.788;6.940;2023-03-14T10:29:03;6.80;99.90
53208;DHT22;39093;52.788;6.940;2023-03-14T10:31:47;6.80;99.90
53208;DHT22;39093;52.788;6.940;2023-03-14T10:34:17;6.80;99.90
53208;DHT22;39093;52.788;6.940;2023-03-14T10:36:52;6.70;99.90
53208;DHT22;39093;52.788;6.940;2023-03-14T10:39:34;6.70;99.90
53208;DHT22;39093;52.788;6.940;2023-03-14T10:42:23;6.60;99.90
53208;DHT22;39093;52.788;6.940;2023-03-14T10:44:56;6.60;99.90
53208;DHT22;39093;52.788;6.940;2023-03-14T10:47:25;6.50;99.90
53208;DHT22;39093;52.788;6.940;2023-03-14T10:49:53;6.60;99.90
53208;DHT22;39093;52.788;6.940;2023-03-14T10:52:28;6.70;99.90
53208;DHT22;39093;52.788;6.940;2023-03-14T10:55:17;6.80;99.90
53208;DHT22;39093;52.788;6.940;2023-03-14T10:57:44;6.90;99.90
53208;DHT22;39093;52.788;6.940;2023-03-14T11:00:22;7.00;99.90
53208;DHT22;39093;52.788;6.940;2023-03-14T11:03:10;7.00;99.90
53208;DHT22;39093;52.788;6.940;2023-03-14T11:05:49;6.90;99.90
53208;DHT22;39093;52.788;6.940;2023-03-14T11:11:14;6.80;99.90
53208;DHT22;39093;52.788;6.940;2023-03-14T11:19:00;6.80;99.90
53208;DHT22;39093;52.788;6.940;2023-03-14T11:21:37;6.80;99.90
53208;DHT22;39093;52.788;6.940;2023-03-14T11:27:06;6.90;99.90
53208;DHT22;39093;52.788;6.940;2023-03-14T11:35:53;7.00;99.90
53208;DHT22;39093;52.788;6.940;2023-03-14T11:38:48;7.30;99.90
53208;DHT22;39093;52.788;6.940;2023-03-14T11:41:28;7.10;99.90
53208;DHT22;39093;52.788;6.940;2023-03-14T11:43:59;7.10;99.90
53208;DHT22;39093;52.788;6.940;2023-03-14T11:46:34;7.20;99.90
53208;DHT22;39093;52.788;6.940;2023-03-14T11:49:42;7.30;99.90
53208;DHT22;39093;52.788;6.940;2023-03-14T11:55:19;7.30;99.90
53208;DHT22;39093;52.788;6.940;2023-03-14T11:57:49;7.20;99.90
53208;DHT22;39093;52.788;6.940;2023-03-14T12:00:20;7.10;99.90
53208;DHT22;39093;52.788;6.940;2023-03-14T12:03:41;7.00;99.90
53208;DHT22;39093;52.788;6.940;2023-03-14T12:06:48;7.50;99.90
53208;DHT22;39093;52.788;6.940;2023-03-14T12:08:57;8.00;99.90
53208;DHT22;39093;52.788;6.940;2023-03-14T12:13:57;9.60;97.70
53208;DHT22;39093;52.788;6.940;2023-03-14T12:16:33;9.80;96.90
53208;DHT22;39093;52.788;6.940;2023-03-14T12:24:32;8.70;99.20
53208;DHT22;39093;52.788;6.940;2023-03-14T12:27:02;8.80;96.10
53208;DHT22;39093;52.788;6.940;2023-03-14T12:29:29;9.50;97.20
53208;DHT22;39093;52.788;6.940;2023-03-14T12:32:24;10.20;93.50
53208;DHT22;39093;52.788;6.940;2023-03-14T12:34:51;10.80;93.10
53208;DHT22;39093;52.788;6.940;2023-03-14T12:42:45;12.40;91.40
53208;DHT22;39093;52.788;6.940;2023-03-14T12:45:24;12.10;86.50
53208;DHT22;39093;52.788;6.940;2023-03-14T12:51:04;11.00;85.80
53208;DHT22;39093;52.788;6.940;2023-03-14T12:56:22;11.10;87.70
53208;DHT22;39093;52.788;6.940;2023-03-14T13:01:54;12.50;81.30
53208;DHT22;39093;52.788;6.940;2023-03-14T13:07:30;12.80;78.50
53208;DHT22;39093;52.788;6.940;2023-03-14T13:12:48;13.40;81.60
53208;DHT22;39093;52.788;6.940;2023-03-14T13:15:27;13.60;74.60
53208;DHT22;39093;52.788;6.940;2023-03-14T13:17:59;13.80;73.00
53208;DHT22;39093;52.788;6.940;2023-03-14T13:20:35;13.40;72.60
53208;DHT22;39093;52.788;6.940;2023-03-14T13:23:03;13.50;74.70
53208;DHT22;39093;52.788;6.940;2023-03-14T13:25:33;13.50;74.60
53208;DHT22;39093;52.788;6.940;2023-03-14T13:28:01;13.20;72.80
53208;DHT22;39093;52.788;6.940;2023-03-14T13:30:38;12.70;74.40
53208;DHT22;39093;52.788;6.940;2023-03-14T13:33:06;12.70;76.00
53208;DHT22;39093;52.788;6.940;2023-03-14T13:35:46;12.90;76.30
53208;DHT22;39093;52.788;6.940;2023-03-14T13:38:19;12.70;75.70
53208;DHT22;39093;52.788;6.940;2023-03-14T13:40:48;11.90;72.50
53208;DHT22;39093;52.788;6.940;2023-03-14T13:45:51;10.60;73.70
53208;DHT22;39093;52.788;6.940;2023-03-14T13:48:18;10.30;75.80
53208;DHT22;39093;52.788;6.940;2023-03-14T13:50:50;11.10;78.40
53208;DHT22;39093;52.788;6.940;2023-03-14T13:53:19;11.20;73.50
53208;DHT22;39093;52.788;6.940;2023-03-14T13:55:46;10.90;75.80
53208;DHT22;39093;52.788;6.940;2023-03-14T13:58:27;10.10;75.00
53208;DHT22;39093;52.788;6.940;2023-03-14T14:00:57;9.80;73.40
53208;DHT22;39093;52.788;6.940;2023-03-14T14:03:25;9.50;73.50
53208;DHT22;39093;52.788;6.940;2023-03-14T14:05:55;9.40;74.90
53208;DHT22;39093;52.788;6.940;2023-03-14T14:08:24;9.30;75.70
53208;DHT22;39093;52.788;6.940;2023-03-14T14:10:56;9.40;77.60
53208;DHT22;39093;52.788;6.940;2023-03-14T14:13:24;9.30;76.20
53208;DHT22;39093;52.788;6.940;2023-03-14T14:15:53;9.40;78.90
53208;DHT22;39093;52.788;6.940;2023-03-14T14:18:24;9.20;79.20
53208;DHT22;39093;52.788;6.940;2023-03-14T14:20:53;9.20;77.60
53208;DHT22;39093;52.788;6.940;2023-03-14T14:23:24;9.30;76.90
53208;DHT22;39093;52.788;6.940;2023-03-14T14:25:53;9.00;75.50
53208;DHT22;39093;52.788;6.940;2023-03-14T14:28:34;9.40;74.40
53208;DHT22;39093;52.788;6.940;2023-03-14T14:36:26;10.10;76.60
53208;DHT22;39093;52.788;6.940;2023-03-14T14:39:15;10.60;74.00
53208;DHT22;39093;52.788;6.940;2023-03-14T14:41:44;11.10;71.80
53208;DHT22;39093;52.788;6.940;2023-03-14T14:44:18;11.30;73.90
53208;DHT22;39093;52.788;6.940;2023-03-14T14:46:47;11.10;73.50
53208;DHT22;39093;52.788;6.940;2023-03-14T14:49:19;11.40;75.40
53208;DHT22;39093;52.788;6.940;2023-03-14T14:51:50;11.10;71.30
53208;DHT22;39093;52.788;6.940;2023-03-14T14:54:32;10.60;73.80
53208;DHT22;39093;52.788;6.940;2023-03-14T14:57:05;10.10;73.20
53208;DHT22;39093;52.788;6.940;2023-03-14T14:59:32;9.30;73.10
53208;DHT22;39093;52.788;6.940;2023-03-14T15:02:38;9.10;76.60
53208;DHT22;39093;52.788;6.940;2023-03-14T15:05:15;8.70;77.40
53208;DHT22;39093;52.788;6.940;2023-03-14T15:07:43;8.60;78.80
53208;DHT22;39093;52.788;6.940;2023-03-14T15:10:12;8.40;78.90
53208;DHT22;39093;52.788;6.940;2023-03-14T15:12:39;8.30;80.10
53208;DHT22;39093;52.788;6.940;2023-03-14T15:15:07;8.30;82.50
53208;DHT22;39093;52.788;6.940;2023-03-14T15:17:35;8.10;82.00
53208;DHT22;39093;52.788;6.940;2023-03-14T15:20:04;8.00;80.50
53208;DHT22;39093;52.788;6.940;2023-03-14T15:22:31;7.90;81.40
53208;DHT22;39093;52.788;6.940;2023-03-14T15:24:59;8.00;79.70
53208;DHT22;39093;52.788;6.940;2023-03-14T15:27:28;8.00;85.50
53208;DHT22;39093;52.788;6.940;2023-03-14T15:29:56;7.90;84.80
53208;DHT22;39093;52.788;6.940;2023-03-14T15:32:23;7.90;86.20
53208;DHT22;39093;52.788;6.940;2023-03-14T15:34:50;7.90;85.30
53208;DHT22;39093;52.788;6.940;2023-03-14T15:37:17;8.00;86.10
53208;DHT22;39093;52.788;6.940;2023-03-14T15:39:44;8.20;84.80
53208;DHT22;39093;52.788;6.940;2023-03-14T15:42:11;8.20;84.00
53208;DHT22;39093;52.788;6.940;2023-03-14T15:44:38;8.30;86.30
53208;DHT22;39093;52.788;6.940;2023-03-14T15:47:06;8.20;86.20
53208;DHT22;39093;52.788;6.940;2023-03-14T15:49:33;8.20;88.60
53208;DHT22;39093;52.788;6.940;2023-03-14T15:52:04;8.00;87.80
53208;DHT22;39093;52.788;6.940;2023-03-14T15:54:31;7.80;84.70
53208;DHT22;39093;52.788;6.940;2023-03-14T15:56:58;7.70;85.10
53208;DHT22;39093;52.788;6.940;2023-03-14T15:59:25;7.80;89.40
53208;DHT22;39093;52.788;6.940;2023-03-14T16:02:13;7.80;84.30
53208;DHT22;39093;52.788;6.940;2023-03-14T16:04:58;8.00;82.60
53208;DHT22;39093;52.788;6.940;2023-03-14T16:07:25;8.10;84.50
53208;DHT22;39093;52.788;6.940;2023-03-14T16:09:52;8.00;81.10
53208;DHT22;39093;52.788;6.940;2023-03-14T16:12:19;7.90;76.40
53208;DHT22;39093;52.788;6.940;2023-03-14T16:14:47;7.90;76.30
53208;DHT22;39093;52.788;6.940;2023-03-14T16:17:15;7.70;75.90
53208;DHT22;39093;52.788;6.940;2023-03-14T16:19:42;7.70;79.60
53208;DHT22;39093;52.788;6.940;2023-03-14T16:22:09;7.60;78.90
53208;DHT22;39093;52.788;6.940;2023-03-14T16:24:37;7.50;82.90
53208;DHT22;39093;52.788;6.940;2023-03-14T16:27:04;7.50;83.00
53208;DHT22;39093;52.788;6.940;2023-03-14T16:29:35;7.30;84.50
53208;DHT22;39093;52.788;6.940;2023-03-14T16:32:02;7.10;84.70
53208;DHT22;39093;52.788;6.940;2023-03-14T16:34:48;7.00;86.80
53208;DHT22;39093;52.788;6.940;2023-03-14T16:37:15;6.90;86.50
53208;DHT22;39093;52.788;6.940;2023-03-14T16:39:42;6.90;88.30
53208;DHT22;39093;52.788;6.940;2023-03-14T16:42:30;6.70;88.70
53208;DHT22;39093;52.788;6.940;2023-03-14T16:44:59;6.70;89.00
53208;DHT22;39093;52.788;6.940;2023-03-14T16:48:00;6.70;90.70
53208;DHT22;39093;52.788;6.940;2023-03-14T16:50:31;6.70;91.30
53208;DHT22;39093;52.788;6.940;2023-03-14T16:53:09;6.70;92.10
53208;DHT22;39093;52.788;6.940;2023-03-14T16:56:16;6.60;92.30
53208;DHT22;39093;52.788;6.940;2023-03-14T16:58:43;6.50;92.40
53208;DHT22;39093;52.788;6.940;2023-03-14T17:01:12;6.50;92.40
53208;DHT22;39093;52.788;6.940;2023-03-14T17:03:50;6.40;92.60
53208;DHT22;39093;52.788;6.940;2023-03-14T17:06:21;6.20;95.20
53208;DHT22;39093;52.788;6.940;2023-03-14T17:08:53;5.80;97.50
53208;DHT22;39093;52.788;6.940;2023-03-14T17:11:23;5.70;97.90
53208;DHT22;39093;52.788;6.940;2023-03-14T17:13:51;5.80;98.70
53208;DHT22;39093;52.788;6.940;2023-03-14T17:16:18;5.70;99.60
53208;DHT22;39093;52.788;6.940;2023-03-14T17:18:47;5.70;99.90